Stolt Dipper — ZCMY3 — position and weather

sailwx.info

Track history (hours):
 
Tides and Currents Weather Stations Pressure Air Temp Water Temp Dewpoint Dewpoint Depression Visibility Wind Speed Wind Dir Waves Ship Positions

Stolt Dipper

Last reported at 2016-May-27 06:14 UTC. Time now 2016-May-27 06:38 UTC.
Position N 53°52' W 003°54'.

Length 96 m; draft 6.4 m.

Type: Ship (hazmat cat A). MMSI: 319036000.

Date/timePositionNaut miles runAvg speedWind from/ knotsBaromVisibWave heightAir tempDewpointWater temp
2016-May-27 06:14N 53°52' W 003°54'7 9.6
2016-May-27 05:33N 53°47' W 003°47'9 9.2
2016-May-27 04:33N 53°41' W 003°35'9 9.3
2016-May-27 03:33N 53°34' W 003°24'9 8.8
2016-May-27 02:33N 53°32' W 003°10'1111.3
2016-May-27 01:33N 53°22' W 002°59'4 4.3
2016-May-27 00:33N 53°19' W 002°56'3 2.8
2016-May-26 23:33N 53°17' W 002°52'0 0.0
2016-May-26 22:31N 53°17' W 002°52'0 0.0
2016-May-26 21:31N 53°17' W 002°52'0 0.0
2016-May-26 20:31N 53°17' W 002°52'0 0.0
2016-May-26 19:28N 53°17' W 002°52'0 0.0
2016-May-26 18:28N 53°17' W 002°52'0 0.0
2016-May-26 17:31N 53°17' W 002°52'0 0.0
2016-May-26 16:25N 53°17' W 002°52'0 0.0
2016-May-26 15:31N 53°17' W 002°52'0 0.0
2016-May-26 14:25N 53°17' W 002°52'0 0.0
2016-May-26 13:28N 53°17' W 002°52'0 0.0
2016-May-26 12:31N 53°17' W 002°52'0 0.0
2016-May-26 11:31N 53°17' W 002°52'0 0.0
2016-May-26 10:28N 53°17' W 002°52'0 0.0
2016-May-26 09:31N 53°17' W 002°52'0 0.0
2016-May-26 08:19N 53°17' W 002°52'0 0.0
2016-May-26 07:31N 53°17' W 002°52'0 0.0
2016-May-26 06:28N 53°17' W 002°52'0 0.0
2016-May-26 05:31N 53°17' W 002°52'0 0.0
2016-May-26 04:31N 53°17' W 002°52'0 0.0
2016-May-26 03:33N 53°17' W 002°52'4 3.7
2016-May-26 02:33N 53°19' W 002°57'2 2.3
2016-May-26 01:33N 53°22' W 002°58'7 6.9
2016-May-26 00:33N 53°28' W 003°03'8 8.3
2016-May-25 23:33N 53°31' W 003°16'6 6.4
2016-May-25 22:33N 53°28' W 003°26'0 0.0
2016-May-25 21:30N 53°28' W 003°26'0 0.0
2016-May-25 20:33N 53°28' W 003°26'0 0.1
2016-May-25 19:33N 53°28' W 003°26'0 0.0
2016-May-25 18:33N 53°28' W 003°26'0 0.0
2016-May-25 17:33N 53°28' W 003°26'1 1.1
2016-May-25 16:33N 53°29' W 003°27'1212.0
2016-May-25 15:33N 53°33' W 003°47'53 2.8
2016-May-24 20:32N 54°11' W 004°49'13 3.9
2016-May-24 17:08N 54°08' W 004°26'2113.2
2016-May-24 15:33N 53°55' W 003°59'1313.4
2016-May-24 14:33N 53°45' W 003°43'1313.4
2016-May-24 13:33N 53°36' W 003°27'1211.8
2016-May-24 12:33N 53°32' W 003°09'1010.2
2016-May-24 11:34N 53°23' W 002°60'5 5.0
2016-May-24 10:33N 53°19' W 002°56'3 2.8
2016-May-24 09:33N 53°17' W 002°52'0 0.0
2016-May-24 08:29N 53°17' W 002°52'0 0.0
2016-May-24 07:29N 53°17' W 002°52'0 0.0
2016-May-24 06:32N 53°17' W 002°52'0 0.0
2016-May-24 05:29N 53°17' W 002°52'0 0.0
2016-May-24 04:32N 53°17' W 002°52'0 0.0
2016-May-24 03:32N 53°17' W 002°52'0 0.0
2016-May-24 02:32N 53°17' W 002°52'0 0.0
2016-May-24 01:32N 53°17' W 002°52'0 0.0
2016-May-24 00:32N 53°17' W 002°52'0 0.0
2016-May-23 23:32N 53°17' W 002°52'0 0.0
2016-May-23 22:32N 53°17' W 002°52'0 0.0
2016-May-23 21:29N 53°17' W 002°52'0 0.0
2016-May-23 20:32N 53°17' W 002°52'0 0.0
2016-May-23 19:23N 53°17' W 002°52'0 0.0
2016-May-23 18:32N 53°17' W 002°52'0 0.0
2016-May-23 17:32N 53°17' W 002°52'0 0.0
2016-May-23 16:32N 53°17' W 002°52'0 0.0
2016-May-23 15:32N 53°17' W 002°52'0 0.0
2016-May-23 14:32N 53°17' W 002°52'0 0.0
2016-May-23 13:20N 53°17' W 002°52'0 0.0
2016-May-23 12:32N 53°17' W 002°52'0 0.0
2016-May-23 11:32N 53°17' W 002°52'0 0.0
2016-May-23 10:32N 53°17' W 002°52'0 0.0
2016-May-23 09:26N 53°17' W 002°52'0 0.0
2016-May-23 08:32N 53°17' W 002°52'0 0.0
2016-May-23 07:32N 53°17' W 002°52'0 0.0
2016-May-23 06:32N 53°17' W 002°52'0 0.0
2016-May-23 05:32N 53°17' W 002°52'0 0.0
2016-May-23 04:29N 53°17' W 002°52'0 0.0
2016-May-23 03:32N 53°17' W 002°52'0 0.0
2016-May-23 02:32N 53°17' W 002°52'2 1.7
2016-May-23 01:33N 53°18' W 002°54'3 2.6
2016-May-23 00:33N 53°20' W 002°57'3 2.6
2016-May-22 23:33N 53°22' W 002°59'1 0.9
2016-May-22 22:33N 53°21' W 002°58'2 2.3
2016-May-22 21:33N 53°19' W 002°57'0 0.0
2016-May-22 20:28N 53°19' W 002°57'0 0.0
2016-May-22 19:31N 53°19' W 002°57'0 0.0
2016-May-22 18:31N 53°19' W 002°57'0 0.0
2016-May-22 17:31N 53°19' W 002°57'0 0.0
2016-May-22 16:25N 53°19' W 002°57'0 0.0
2016-May-22 15:28N 53°19' W 002°57'0 0.0
2016-May-22 14:31N 53°19' W 002°57'0 0.0
2016-May-22 13:31N 53°19' W 002°57'0 0.0
2016-May-22 12:31N 53°19' W 002°57'0 0.0
2016-May-22 11:31N 53°19' W 002°57'0 0.0
2016-May-22 10:28N 53°19' W 002°57'0 0.0
2016-May-22 09:31N 53°19' W 002°57'0 0.0
2016-May-22 08:31N 53°19' W 002°57'0 0.0
2016-May-22 07:31N 53°19' W 002°57'0 0.0
2016-May-22 06:31N 53°19' W 002°57'0 0.0
2016-May-22 05:28N 53°19' W 002°57'0 0.0
2016-May-22 04:31N 53°19' W 002°57'0 0.0
2016-May-22 03:31N 53°19' W 002°57'0 0.0
2016-May-22 02:25N 53°19' W 002°57'0 0.0
2016-May-22 01:31N 53°19' W 002°57'0 0.0
2016-May-22 00:31N 53°19' W 002°57'0 0.0
2016-May-21 23:31N 53°19' W 002°57'0 0.0
2016-May-21 22:28N 53°19' W 002°57'0 0.0
2016-May-21 21:22N 53°19' W 002°57'0 0.0
2016-May-21 20:31N 53°19' W 002°57'0 0.0
2016-May-21 19:31N 53°19' W 002°57'0 0.0
2016-May-21 18:31N 53°19' W 002°57'0 0.0
2016-May-21 17:31N 53°19' W 002°57'0 0.0
2016-May-21 16:31N 53°19' W 002°57'0 0.0
2016-May-21 15:31N 53°19' W 002°57'0 0.0
2016-May-21 14:31N 53°19' W 002°57'0 0.0
2016-May-21 13:28N 53°19' W 002°57'0 0.0
2016-May-21 12:31N 53°19' W 002°57'0 0.2
2016-May-21 11:33N 53°19' W 002°57'3 2.6
2016-May-21 10:33N 53°22' W 002°58'0 0.1
2016-May-21 09:33N 53°22' W 002°58'3 2.9
2016-May-21 08:32N 53°24' W 003°01'0 0.0
2016-May-21 07:32N 53°24' W 003°01'1 1.1
2016-May-21 06:31N 53°25' W 003°03'0 0.0
2016-May-21 05:31N 53°25' W 003°03'0 0.0
2016-May-21 04:31N 53°25' W 003°03'0 0.0
2016-May-21 03:31N 53°25' W 003°03'0 0.0
2016-May-21 02:31N 53°25' W 003°03'0 0.0
2016-May-21 01:31N 53°25' W 003°03'0 0.0
2016-May-21 00:31N 53°25' W 003°03'0 0.0
2016-May-20 23:31N 53°25' W 003°03'0 0.0
2016-May-20 22:28N 53°25' W 003°03'0 0.0
2016-May-20 21:28N 53°25' W 003°03'0 0.0
2016-May-20 20:31N 53°25' W 003°03'0 0.0
2016-May-20 19:22N 53°25' W 003°03'0 0.0
2016-May-20 18:31N 53°25' W 003°03'0 0.0
2016-May-20 17:31N 53°25' W 003°03'0 0.0
2016-May-20 16:31N 53°25' W 003°03'0 0.0
2016-May-20 15:31N 53°25' W 003°03'0 0.0
2016-May-20 14:31N 53°25' W 003°03'0 0.0
2016-May-20 13:31N 53°25' W 003°03'0 0.0
2016-May-20 12:31N 53°25' W 003°03'0 0.0
2016-May-20 11:28N 53°25' W 003°03'0 0.0
2016-May-20 10:31N 53°25' W 003°03'0 0.0
2016-May-20 09:31N 53°25' W 003°03'0 0.0
2016-May-20 08:31N 53°25' W 003°03'0 0.0
2016-May-20 07:28N 53°25' W 003°03'0 0.0
2016-May-20 06:31N 53°25' W 003°03'0 0.0
2016-May-20 04:31N 53°25' W 003°03'0 0.0
2016-May-20 03:31N 53°25' W 003°03'0 0.0
2016-May-20 02:31N 53°25' W 003°03'0 0.0
2016-May-20 01:31N 53°25' W 003°03'0 0.0
2016-May-20 00:31N 53°25' W 003°03'1 0.6
2016-May-19 23:33N 53°24' W 003°02'1 0.6
2016-May-19 22:33N 53°24' W 003°01'0 0.0
2016-May-19 21:33N 53°24' W 003°01'3 2.8
2016-May-19 20:33N 53°27' W 003°02'8 8.1
2016-May-19 19:33N 53°31' W 003°14'7 5.8
2016-May-19 18:26N 53°28' W 003°24'0 0.0
2016-May-19 17:26N 53°28' W 003°24'0 0.1
2016-May-19 16:32N 53°29' W 003°24'0 0.0
2016-May-19 15:32N 53°28' W 003°24'0 0.0
2016-May-19 14:32N 53°28' W 003°24'0 0.0
2016-May-19 13:29N 53°28' W 003°24'0 0.0
2016-May-19 12:32N 53°28' W 003°24'0 0.0
2016-May-19 11:26N 53°28' W 003°24'4 4.9
2016-May-19 10:33N 53°30' W 003°31'1312.9
2016-May-19 09:33N 53°30' W 003°52'13911.3
2016-May-18 21:17N 51°32' W 005°52'911.8
2016-May-18 20:34N 51°24' W 005°52'3912.0
2016-May-18 17:17N 50°45' W 005°52'911.8
2016-May-18 16:33N 50°36' W 005°52'1311.8
2016-May-18 15:28N 50°23' W 005°52'52 8.7
2016-May-18 09:32N 49°55' W 004°44'1212.0
2016-May-18 08:32N 49°56' W 004°25'2311.7
2016-May-18 06:32N 49°58' W 003°49'1111.1
2016-May-18 05:33N 49°59' W 003°32'1110.8
2016-May-18 04:34N 49°60' W 003°15'1110.6
2016-May-18 03:34N 50°01' W 002°59'6713.3
2016-May-17 22:33N 49°56' W 001°15'1414.3
2016-May-17 21:34N 49°49' W 000°56'1313.4
2016-May-17 20:34N 49°42' W 000°39'1212.2
2016-May-17 19:34N 49°36' W 000°23'1211.8
2016-May-17 18:34N 49°30' W 000°07'1211.8
2016-May-17 17:34N 49°26' E 000°10'10 9.8
2016-May-17 16:34N 49°27' E 000°25'5 2.3
2016-May-17 14:19N 49°28' E 000°33'0 0.0
2016-May-17 09:19N 49°28' E 000°33'0 0.0
2016-May-17 08:31N 49°28' E 000°33'0 0.0
2016-May-17 07:22N 49°28' E 000°33'  
Track history (hours):
 
Tides and Currents Weather Stations Pressure Air Temp Water Temp Dewpoint Dewpoint Depression Visibility Wind Speed Wind Dir Waves Ship Positions

Stolt Dipper

Last reported at 2016-May-27 06:14 UTC. Time now 2016-May-27 06:38 UTC.
Position N 53°52' W 003°54'.

Length 96 m; draft 6.4 m.

Type: Ship (hazmat cat A). MMSI: 319036000.

Date/timePositionNaut miles runAvg speedWind from/ knotsBaromVisibWave heightAir tempDewpointWater temp
2016-May-27 06:14N 53°52' W 003°54'7 9.6
2016-May-27 05:33N 53°47' W 003°47'9 9.2
2016-May-27 04:33N 53°41' W 003°35'9 9.3
2016-May-27 03:33N 53°34' W 003°24'9 8.8
2016-May-27 02:33N 53°32' W 003°10'1111.3
2016-May-27 01:33N 53°22' W 002°59'4 4.3
2016-May-27 00:33N 53°19' W 002°56'3 2.8
2016-May-26 23:33N 53°17' W 002°52'0 0.0
2016-May-26 22:31N 53°17' W 002°52'0 0.0
2016-May-26 21:31N 53°17' W 002°52'0 0.0
2016-May-26 20:31N 53°17' W 002°52'0 0.0
2016-May-26 19:28N 53°17' W 002°52'0 0.0
2016-May-26 18:28N 53°17' W 002°52'0 0.0
2016-May-26 17:31N 53°17' W 002°52'0 0.0
2016-May-26 16:25N 53°17' W 002°52'0 0.0
2016-May-26 15:31N 53°17' W 002°52'0 0.0
2016-May-26 14:25N 53°17' W 002°52'0 0.0
2016-May-26 13:28N 53°17' W 002°52'0 0.0
2016-May-26 12:31N 53°17' W 002°52'0 0.0
2016-May-26 11:31N 53°17' W 002°52'0 0.0
2016-May-26 10:28N 53°17' W 002°52'0 0.0
2016-May-26 09:31N 53°17' W 002°52'0 0.0
2016-May-26 08:19N 53°17' W 002°52'0 0.0
2016-May-26 07:31N 53°17' W 002°52'0 0.0
2016-May-26 06:28N 53°17' W 002°52'0 0.0
2016-May-26 05:31N 53°17' W 002°52'0 0.0
2016-May-26 04:31N 53°17' W 002°52'0 0.0
2016-May-26 03:33N 53°17' W 002°52'4 3.7
2016-May-26 02:33N 53°19' W 002°57'2 2.3
2016-May-26 01:33N 53°22' W 002°58'7 6.9
2016-May-26 00:33N 53°28' W 003°03'8 8.3
2016-May-25 23:33N 53°31' W 003°16'6 6.4
2016-May-25 22:33N 53°28' W 003°26'0 0.0
2016-May-25 21:30N 53°28' W 003°26'0 0.0
2016-May-25 20:33N 53°28' W 003°26'0 0.1
2016-May-25 19:33N 53°28' W 003°26'0 0.0
2016-May-25 18:33N 53°28' W 003°26'0 0.0
2016-May-25 17:33N 53°28' W 003°26'1 1.1
2016-May-25 16:33N 53°29' W 003°27'1212.0
2016-May-25 15:33N 53°33' W 003°47'53 2.8
2016-May-24 20:32N 54°11' W 004°49'13 3.9
2016-May-24 17:08N 54°08' W 004°26'2113.2
2016-May-24 15:33N 53°55' W 003°59'1313.4
2016-May-24 14:33N 53°45' W 003°43'1313.4
2016-May-24 13:33N 53°36' W 003°27'1211.8
2016-May-24 12:33N 53°32' W 003°09'1010.2
2016-May-24 11:34N 53°23' W 002°60'5 5.0
2016-May-24 10:33N 53°19' W 002°56'3 2.8
2016-May-24 09:33N 53°17' W 002°52'0 0.0
2016-May-24 08:29N 53°17' W 002°52'0 0.0
2016-May-24 07:29N 53°17' W 002°52'0 0.0
2016-May-24 06:32N 53°17' W 002°52'0 0.0
2016-May-24 05:29N 53°17' W 002°52'0 0.0
2016-May-24 04:32N 53°17' W 002°52'0 0.0
2016-May-24 03:32N 53°17' W 002°52'0 0.0
2016-May-24 02:32N 53°17' W 002°52'0 0.0
2016-May-24 01:32N 53°17' W 002°52'0 0.0
2016-May-24 00:32N 53°17' W 002°52'0 0.0
2016-May-23 23:32N 53°17' W 002°52'0 0.0
2016-May-23 22:32N 53°17' W 002°52'0 0.0
2016-May-23 21:29N 53°17' W 002°52'0 0.0
2016-May-23 20:32N 53°17' W 002°52'0 0.0
2016-May-23 19:23N 53°17' W 002°52'0 0.0
2016-May-23 18:32N 53°17' W 002°52'0 0.0
2016-May-23 17:32N 53°17' W 002°52'0 0.0
2016-May-23 16:32N 53°17' W 002°52'0 0.0
2016-May-23 15:32N 53°17' W 002°52'0 0.0
2016-May-23 14:32N 53°17' W 002°52'0 0.0
2016-May-23 13:20N 53°17' W 002°52'0 0.0
2016-May-23 12:32N 53°17' W 002°52'0 0.0
2016-May-23 11:32N 53°17' W 002°52'0 0.0
2016-May-23 10:32N 53°17' W 002°52'0 0.0
2016-May-23 09:26N 53°17' W 002°52'0 0.0
2016-May-23 08:32N 53°17' W 002°52'0 0.0
2016-May-23 07:32N 53°17' W 002°52'0 0.0
2016-May-23 06:32N 53°17' W 002°52'0 0.0
2016-May-23 05:32N 53°17' W 002°52'0 0.0
2016-May-23 04:29N 53°17' W 002°52'0 0.0
2016-May-23 03:32N 53°17' W 002°52'0 0.0
2016-May-23 02:32N 53°17' W 002°52'2 1.7
2016-May-23 01:33N 53°18' W 002°54'3 2.6
2016-May-23 00:33N 53°20' W 002°57'3 2.6
2016-May-22 23:33N 53°22' W 002°59'1 0.9
2016-May-22 22:33N 53°21' W 002°58'2 2.3
2016-May-22 21:33N 53°19' W 002°57'0 0.0
2016-May-22 20:28N 53°19' W 002°57'0 0.0
2016-May-22 19:31N 53°19' W 002°57'0 0.0
2016-May-22 18:31N 53°19' W 002°57'0 0.0
2016-May-22 17:31N 53°19' W 002°57'0 0.0
2016-May-22 16:25N 53°19' W 002°57'0 0.0
2016-May-22 15:28N 53°19' W 002°57'0 0.0
2016-May-22 14:31N 53°19' W 002°57'0 0.0
2016-May-22 13:31N 53°19' W 002°57'0 0.0
2016-May-22 12:31N 53°19' W 002°57'0 0.0
2016-May-22 11:31N 53°19' W 002°57'0 0.0
2016-May-22 10:28N 53°19' W 002°57'0 0.0
2016-May-22 09:31N 53°19' W 002°57'0 0.0
2016-May-22 08:31N 53°19' W 002°57'0 0.0
2016-May-22 07:31N 53°19' W 002°57'0 0.0
2016-May-22 06:31N 53°19' W 002°57'0 0.0
2016-May-22 05:28N 53°19' W 002°57'0 0.0
2016-May-22 04:31N 53°19' W 002°57'0 0.0
2016-May-22 03:31N 53°19' W 002°57'0 0.0
2016-May-22 02:25N 53°19' W 002°57'0 0.0
2016-May-22 01:31N 53°19' W 002°57'0 0.0
2016-May-22 00:31N 53°19' W 002°57'0 0.0
2016-May-21 23:31N 53°19' W 002°57'0 0.0
2016-May-21 22:28N 53°19' W 002°57'0 0.0
2016-May-21 21:22N 53°19' W 002°57'0 0.0
2016-May-21 20:31N 53°19' W 002°57'0 0.0
2016-May-21 19:31N 53°19' W 002°57'0 0.0
2016-May-21 18:31N 53°19' W 002°57'0 0.0
2016-May-21 17:31N 53°19' W 002°57'0 0.0
2016-May-21 16:31N 53°19' W 002°57'0 0.0
2016-May-21 15:31N 53°19' W 002°57'0 0.0
2016-May-21 14:31N 53°19' W 002°57'0 0.0
2016-May-21 13:28N 53°19' W 002°57'0 0.0
2016-May-21 12:31N 53°19' W 002°57'0 0.2
2016-May-21 11:33N 53°19' W 002°57'3 2.6
2016-May-21 10:33N 53°22' W 002°58'0 0.1
2016-May-21 09:33N 53°22' W 002°58'3 2.9
2016-May-21 08:32N 53°24' W 003°01'0 0.0
2016-May-21 07:32N 53°24' W 003°01'1 1.1
2016-May-21 06:31N 53°25' W 003°03'0 0.0
2016-May-21 05:31N 53°25' W 003°03'0 0.0
2016-May-21 04:31N 53°25' W 003°03'0 0.0
2016-May-21 03:31N 53°25' W 003°03'0 0.0
2016-May-21 02:31N 53°25' W 003°03'0 0.0
2016-May-21 01:31N 53°25' W 003°03'0 0.0
2016-May-21 00:31N 53°25' W 003°03'0 0.0
2016-May-20 23:31N 53°25' W 003°03'0 0.0
2016-May-20 22:28N 53°25' W 003°03'0 0.0
2016-May-20 21:28N 53°25' W 003°03'0 0.0
2016-May-20 20:31N 53°25' W 003°03'0 0.0
2016-May-20 19:22N 53°25' W 003°03'0 0.0
2016-May-20 18:31N 53°25' W 003°03'0 0.0
2016-May-20 17:31N 53°25' W 003°03'0 0.0
2016-May-20 16:31N 53°25' W 003°03'0 0.0
2016-May-20 15:31N 53°25' W 003°03'0 0.0
2016-May-20 14:31N 53°25' W 003°03'0 0.0
2016-May-20 13:31N 53°25' W 003°03'0 0.0
2016-May-20 12:31N 53°25' W 003°03'0 0.0
2016-May-20 11:28N 53°25' W 003°03'0 0.0
2016-May-20 10:31N 53°25' W 003°03'0 0.0
2016-May-20 09:31N 53°25' W 003°03'0 0.0
2016-May-20 08:31N 53°25' W 003°03'0 0.0
2016-May-20 07:28N 53°25' W 003°03'0 0.0
2016-May-20 06:31N 53°25' W 003°03'0 0.0
2016-May-20 04:31N 53°25' W 003°03'0 0.0
2016-May-20 03:31N 53°25' W 003°03'0 0.0
2016-May-20 02:31N 53°25' W 003°03'0 0.0
2016-May-20 01:31N 53°25' W 003°03'0 0.0
2016-May-20 00:31N 53°25' W 003°03'1 0.6
2016-May-19 23:33N 53°24' W 003°02'1 0.6
2016-May-19 22:33N 53°24' W 003°01'0 0.0
2016-May-19 21:33N 53°24' W 003°01'3 2.8
2016-May-19 20:33N 53°27' W 003°02'8 8.1
2016-May-19 19:33N 53°31' W 003°14'7 5.8
2016-May-19 18:26N 53°28' W 003°24'0 0.0
2016-May-19 17:26N 53°28' W 003°24'0 0.1
2016-May-19 16:32N 53°29' W 003°24'0 0.0
2016-May-19 15:32N 53°28' W 003°24'0 0.0
2016-May-19 14:32N 53°28' W 003°24'0 0.0
2016-May-19 13:29N 53°28' W 003°24'0 0.0
2016-May-19 12:32N 53°28' W 003°24'0 0.0
2016-May-19 11:26N 53°28' W 003°24'4 4.9
2016-May-19 10:33N 53°30' W 003°31'1312.9
2016-May-19 09:33N 53°30' W 003°52'13911.3
2016-May-18 21:17N 51°32' W 005°52'911.8
2016-May-18 20:34N 51°24' W 005°52'3912.0
2016-May-18 17:17N 50°45' W 005°52'911.8
2016-May-18 16:33N 50°36' W 005°52'1311.8
2016-May-18 15:28N 50°23' W 005°52'52 8.7
2016-May-18 09:32N 49°55' W 004°44'1212.0
2016-May-18 08:32N 49°56' W 004°25'2311.7
2016-May-18 06:32N 49°58' W 003°49'1111.1
2016-May-18 05:33N 49°59' W 003°32'1110.8
2016-May-18 04:34N 49°60' W 003°15'1110.6
2016-May-18 03:34N 50°01' W 002°59'6713.3
2016-May-17 22:33N 49°56' W 001°15'1414.3
2016-May-17 21:34N 49°49' W 000°56'1313.4
2016-May-17 20:34N 49°42' W 000°39'1212.2
2016-May-17 19:34N 49°36' W 000°23'1211.8
2016-May-17 18:34N 49°30' W 000°07'1211.8
2016-May-17 17:34N 49°26' E 000°10'10 9.8
2016-May-17 16:34N 49°27' E 000°25'5 2.3
2016-May-17 14:19N 49°28' E 000°33'0 0.0
2016-May-17 09:19N 49°28' E 000°33'0 0.0
2016-May-17 08:31N 49°28' E 000°33'0 0.0
2016-May-17 07:22N 49°28' E 000°33'  

Dump ship's entire track history